VLK7755 UHWW-RJAA
Flight info
| Callsign | VLK7755 |
|---|---|
| Flight time | 1h 33m |
| Altitude | 35000 |
| Route | PERAS2K PERAS A723 ARLAS B451 IGROD/N0465F350 B451 KADBO R211 GTC Y303 ENTAK Y30 SWAMP |
| Aircraft | T154/M-SDGRWY/S |
Departure
| Time | 2026-04-21 15:05 |
|---|---|
| Airport | Vladivostok International Airport (UHWW) |
Arrival
| Time | 2026-04-21 16:39 |
|---|---|
| Airport | Narita International Airport (RJAA) |
| Time | Latitude | Longitude | Altitude | Speed | Heading |
|---|---|---|---|---|---|
| 2026-04-21 14:41 | 43.39911 | 132.16489 | 55 ft | 0 kts | 149° |
| 2026-04-21 14:56 | 43.39909 | 132.16490 | 55 ft | 0 kts | 149° |
| 2026-04-21 14:56 | 43.39904 | 132.16495 | 55 ft | 1 kts | 149° |
| 2026-04-21 14:57 | 43.39888 | 132.16507 | 56 ft | 4 kts | 151° |
| 2026-04-21 14:57 | 43.39850 | 132.16493 | 57 ft | 5 kts | 225° |
| 2026-04-21 14:57 | 43.39833 | 132.16457 | 59 ft | 6 kts | 240° |
| 2026-04-21 14:57 | 43.39798 | 132.16373 | 62 ft | 12 kts | 240° |
| 2026-04-21 14:58 | 43.39757 | 132.16273 | 66 ft | 9 kts | 241° |
| 2026-04-21 14:58 | 43.39766 | 132.16209 | 67 ft | 8 kts | 317° |
| 2026-04-21 14:58 | 43.39831 | 132.16153 | 64 ft | 13 kts | 328° |
| 2026-04-21 14:58 | 43.39897 | 132.16080 | 63 ft | 10 kts | 275° |
| 2026-04-21 14:59 | 43.39865 | 132.15984 | 65 ft | 11 kts | 240° |
| 2026-04-21 14:59 | 43.39821 | 132.15875 | 67 ft | 15 kts | 241° |
| 2026-04-21 14:59 | 43.39758 | 132.15718 | 70 ft | 21 kts | 240° |
| 2026-04-21 14:59 | 43.39685 | 132.15538 | 72 ft | 22 kts | 240° |
| 2026-04-21 15:00 | 43.39605 | 132.15341 | 67 ft | 26 kts | 241° |
| 2026-04-21 15:00 | 43.39509 | 132.15105 | 64 ft | 30 kts | 241° |
| 2026-04-21 15:00 | 43.39408 | 132.14850 | 63 ft | 32 kts | 240° |
| 2026-04-21 15:00 | 43.39296 | 132.14578 | 61 ft | 32 kts | 241° |
| 2026-04-21 15:01 | 43.39197 | 132.14331 | 56 ft | 29 kts | 240° |
| 2026-04-21 15:01 | 43.39097 | 132.14076 | 49 ft | 32 kts | 240° |
| 2026-04-21 15:01 | 43.39001 | 132.13841 | 41 ft | 29 kts | 241° |
| 2026-04-21 15:01 | 43.38893 | 132.13574 | 34 ft | 33 kts | 241° |
| 2026-04-21 15:02 | 43.38801 | 132.13347 | 31 ft | 18 kts | 240° |
| 2026-04-21 15:02 | 43.38765 | 132.13217 | 31 ft | 13 kts | 283° |
| 2026-04-21 15:02 | 43.38809 | 132.13156 | 32 ft | 6 kts | 337° |
| 2026-04-21 15:02 | 43.38818 | 132.13150 | 32 ft | 0 kts | 333° |
| 2026-04-21 15:03 | 43.38828 | 132.13144 | 32 ft | 3 kts | 333° |
| 2026-04-21 15:03 | 43.38874 | 132.13110 | 33 ft | 10 kts | 332° |
| 2026-04-21 15:03 | 43.38934 | 132.13091 | 34 ft | 8 kts | 30° |
| 2026-04-21 15:04 | 43.38951 | 132.13115 | 34 ft | 0 kts | 59° |
| 2026-04-21 15:04 | 43.38952 | 132.13117 | 33 ft | 0 kts | 59° |
| 2026-04-21 15:05 | 43.38961 | 132.13139 | 33 ft | 9 kts | 60° |
| 2026-04-21 15:05 | 43.39522 | 132.14540 | 111 ft | 160 kts | 59° |
| 2026-04-21 15:05 | 43.40077 | 132.15915 | 868 ft | 172 kts | 60° |
| 2026-04-21 15:06 | 43.40693 | 132.17459 | 1433 ft | 196 kts | 60° |
| 2026-04-21 15:06 | 43.41404 | 132.19231 | 1913 ft | 230 kts | 59° |
| 2026-04-21 15:06 | 43.42178 | 132.21159 | 3056 ft | 228 kts | 58° |
| 2026-04-21 15:06 | 43.42876 | 132.23116 | 3969 ft | 238 kts | 71° |
| 2026-04-21 15:07 | 43.43031 | 132.25412 | 4895 ft | 249 kts | 96° |
| 2026-04-21 15:07 | 43.42504 | 132.27657 | 5788 ft | 254 kts | 122° |
| 2026-04-21 15:07 | 43.41348 | 132.29518 | 6699 ft | 255 kts | 144° |
| 2026-04-21 15:07 | 43.39938 | 132.31038 | 7591 ft | 260 kts | 148° |
| 2026-04-21 15:08 | 43.38628 | 132.32733 | 8534 ft | 267 kts | 128° |
| 2026-04-21 15:08 | 43.37793 | 132.35060 | 9373 ft | 276 kts | 104° |
| 2026-04-21 15:08 | 43.37575 | 132.37727 | 10074 ft | 287 kts | 88° |
| 2026-04-21 15:08 | 43.37523 | 132.40527 | 10702 ft | 304 kts | 89° |
| 2026-04-21 15:09 | 43.37508 | 132.43552 | 10987 ft | 335 kts | 86° |
| 2026-04-21 15:09 | 43.37577 | 132.46918 | 11412 ft | 360 kts | 85° |
| 2026-04-21 15:09 | 43.37718 | 132.51000 | 12013 ft | 385 kts | 84° |
| 2026-04-21 15:09 | 43.37865 | 132.54752 | 12617 ft | 403 kts | 84° |
| 2026-04-21 15:10 | 43.38023 | 132.58664 | 13305 ft | 418 kts | 84° |
| 2026-04-21 15:10 | 43.38187 | 132.62718 | 14227 ft | 425 kts | 84° |
| 2026-04-21 15:10 | 43.38350 | 132.66814 | 15091 ft | 434 kts | 85° |
| 2026-04-21 15:10 | 43.38511 | 132.70923 | 16002 ft | 439 kts | 84° |
| 2026-04-21 15:11 | 43.38669 | 132.74942 | 16831 ft | 445 kts | 84° |
| 2026-04-21 15:11 | 43.38839 | 132.79301 | 17681 ft | 452 kts | 84° |
| 2026-04-21 15:11 | 43.39005 | 132.83615 | 18548 ft | 458 kts | 84° |
| 2026-04-21 15:11 | 43.39173 | 132.88001 | 19374 ft | 464 kts | 84° |
| 2026-04-21 15:12 | 43.39318 | 132.92415 | 20200 ft | 470 kts | 86° |
| 2026-04-21 15:12 | 43.39400 | 132.96970 | 20962 ft | 477 kts | 86° |
| 2026-04-21 15:12 | 43.39471 | 133.01556 | 21696 ft | 486 kts | 86° |
| 2026-04-21 15:12 | 43.39543 | 133.06229 | 22506 ft | 488 kts | 86° |
| 2026-04-21 15:13 | 43.39606 | 133.10921 | 23217 ft | 495 kts | 85° |
| 2026-04-21 15:13 | 43.39713 | 133.15630 | 23981 ft | 501 kts | 84° |
| 2026-04-21 15:13 | 43.39808 | 133.20187 | 24757 ft | 505 kts | 85° |
| 2026-04-21 15:13 | 43.39881 | 133.25035 | 25300 ft | 515 kts | 85° |
| 2026-04-21 15:14 | 43.39989 | 133.29788 | 26301 ft | 511 kts | 85° |
| 2026-04-21 15:14 | 43.40072 | 133.34706 | 27134 ft | 514 kts | 85° |
| 2026-04-21 15:14 | 43.40118 | 133.39679 | 27966 ft | 516 kts | 87° |
| 2026-04-21 15:14 | 43.40099 | 133.44572 | 28755 ft | 518 kts | 87° |
| 2026-04-21 15:15 | 43.40071 | 133.49512 | 29634 ft | 516 kts | 87° |
| 2026-04-21 15:15 | 43.40071 | 133.54297 | 30394 ft | 517 kts | 87° |
| 2026-04-21 15:15 | 43.40070 | 133.58621 | 31047 ft | 518 kts | 86° |
| 2026-04-21 15:15 | 43.40075 | 133.63934 | 32111 ft | 510 kts | 87° |
| 2026-04-21 15:16 | 43.40080 | 133.67981 | 32608 ft | 513 kts | 88° |
| 2026-04-21 15:16 | 43.40080 | 133.72125 | 33059 ft | 515 kts | 89° |
| 2026-04-21 15:16 | 43.40071 | 133.77727 | 34105 ft | 508 kts | 89° |
| 2026-04-21 15:16 | 43.40049 | 133.82867 | 34674 ft | 510 kts | 94° |
| 2026-04-21 15:17 | 43.39502 | 133.87495 | 35632 ft | 496 kts | 110° |
| 2026-04-21 15:17 | 43.38169 | 133.91836 | 36052 ft | 491 kts | 126° |
| 2026-04-21 15:17 | 43.36291 | 133.95605 | 36743 ft | 476 kts | 136° |
| 2026-04-21 15:17 | 43.34155 | 133.99139 | 36916 ft | 485 kts | 139° |
| 2026-04-21 15:18 | 43.31990 | 134.02658 | 36878 ft | 502 kts | 137° |
| 2026-04-21 15:18 | 43.29736 | 134.06416 | 36833 ft | 520 kts | 136° |
| 2026-04-21 15:18 | 43.27486 | 134.10246 | 36798 ft | 536 kts | 136° |
| 2026-04-21 15:18 | 43.25092 | 134.14368 | 36814 ft | 540 kts | 135° |
| 2026-04-21 15:19 | 43.20576 | 134.22185 | 36798 ft | 539 kts | 136° |
| 2026-04-21 15:19 | 43.16052 | 134.29974 | 36815 ft | 541 kts | 136° |
| 2026-04-21 15:20 | 43.11208 | 134.38290 | 36834 ft | 543 kts | 136° |
| 2026-04-21 15:20 | 43.06488 | 134.46372 | 36852 ft | 547 kts | 136° |
| 2026-04-21 15:21 | 43.01780 | 134.54416 | 36863 ft | 546 kts | 136° |
| 2026-04-21 15:21 | 42.97102 | 134.62376 | 36860 ft | 548 kts | 137° |
| 2026-04-21 15:22 | 42.92356 | 134.70413 | 36861 ft | 549 kts | 137° |
| 2026-04-21 15:22 | 42.87631 | 134.78383 | 36848 ft | 549 kts | 137° |
| 2026-04-21 15:23 | 42.82909 | 134.86278 | 36862 ft | 551 kts | 137° |
| 2026-04-21 15:23 | 42.78173 | 134.94200 | 36861 ft | 553 kts | 137° |
| 2026-04-21 15:24 | 42.73332 | 135.02286 | 36858 ft | 553 kts | 138° |
| 2026-04-21 15:24 | 42.68786 | 135.09856 | 36871 ft | 554 kts | 138° |
| 2026-04-21 15:25 | 42.63923 | 135.17952 | 36892 ft | 555 kts | 137° |
| 2026-04-21 15:25 | 42.59012 | 135.26166 | 36907 ft | 557 kts | 137° |
| 2026-04-21 15:26 | 42.54131 | 135.34302 | 36920 ft | 558 kts | 138° |
| 2026-04-21 15:26 | 42.49209 | 135.42477 | 36920 ft | 560 kts | 138° |
| 2026-04-21 15:27 | 42.44234 | 135.50694 | 36924 ft | 562 kts | 138° |
| 2026-04-21 15:27 | 42.39202 | 135.58958 | 36922 ft | 564 kts | 138° |
| 2026-04-21 15:28 | 42.34214 | 135.67140 | 36898 ft | 565 kts | 139° |
| 2026-04-21 15:28 | 42.29205 | 135.75356 | 36919 ft | 567 kts | 139° |
| 2026-04-21 15:29 | 42.24123 | 135.83643 | 36916 ft | 568 kts | 139° |
| 2026-04-21 15:29 | 42.19068 | 135.91867 | 36902 ft | 568 kts | 139° |
| 2026-04-21 15:30 | 42.13981 | 136.00113 | 36882 ft | 569 kts | 139° |
| 2026-04-21 15:30 | 42.08895 | 136.08330 | 36855 ft | 570 kts | 140° |
| 2026-04-21 15:31 | 42.03826 | 136.16504 | 36896 ft | 568 kts | 140° |
| 2026-04-21 15:31 | 41.98727 | 136.24690 | 36924 ft | 569 kts | 140° |
| 2026-04-21 15:32 | 41.93645 | 136.32837 | 36965 ft | 569 kts | 139° |
| 2026-04-21 15:32 | 41.88525 | 136.41023 | 36962 ft | 570 kts | 140° |
| 2026-04-21 15:33 | 41.83381 | 136.49190 | 36883 ft | 568 kts | 140° |
| 2026-04-21 15:33 | 41.78194 | 136.57416 | 36881 ft | 571 kts | 139° |
| 2026-04-21 15:34 | 41.73066 | 136.65550 | 36877 ft | 572 kts | 140° |
| 2026-04-21 15:34 | 41.67951 | 136.73688 | 36887 ft | 572 kts | 139° |
| 2026-04-21 15:35 | 41.65276 | 136.77570 | 36958 ft | 556 kts | 151° |
| 2026-04-21 15:35 | 41.62196 | 136.80545 | 36967 ft | 530 kts | 165° |
| 2026-04-21 15:35 | 41.58889 | 136.82394 | 36952 ft | 494 kts | 182° |
| 2026-04-21 15:35 | 41.55587 | 136.83307 | 36882 ft | 482 kts | 187° |
| 2026-04-21 15:36 | 41.49051 | 136.85182 | 36929 ft | 493 kts | 183° |
| 2026-04-21 15:36 | 41.42804 | 136.87494 | 36831 ft | 497 kts | 181° |
| 2026-04-21 15:37 | 41.39222 | 136.88873 | 36954 ft | 500 kts | 180° |
| 2026-04-21 15:37 | 41.35902 | 136.90199 | 36866 ft | 503 kts | 179° |
| 2026-04-21 15:37 | 41.29292 | 136.92921 | 36937 ft | 501 kts | 180° |
| 2026-04-21 15:38 | 41.22607 | 136.95645 | 36940 ft | 500 kts | 180° |
| 2026-04-21 15:38 | 41.15969 | 136.98337 | 36916 ft | 498 kts | 180° |
| 2026-04-21 15:39 | 41.09322 | 137.00993 | 36912 ft | 500 kts | 180° |
| 2026-04-21 15:39 | 41.02728 | 137.03680 | 36911 ft | 498 kts | 180° |
| 2026-04-21 15:40 | 40.96175 | 137.06299 | 36897 ft | 501 kts | 180° |
| 2026-04-21 15:40 | 40.89557 | 137.08952 | 36896 ft | 502 kts | 180° |
| 2026-04-21 15:41 | 40.82951 | 137.11539 | 36900 ft | 499 kts | 182° |
| 2026-04-21 15:41 | 40.76291 | 137.14185 | 36958 ft | 502 kts | 179° |
| 2026-04-21 15:42 | 40.69569 | 137.16904 | 36950 ft | 500 kts | 181° |
| 2026-04-21 15:42 | 40.62920 | 137.19511 | 36919 ft | 501 kts | 181° |
| 2026-04-21 15:43 | 40.56248 | 137.22157 | 36906 ft | 507 kts | 181° |
| 2026-04-21 15:43 | 40.49564 | 137.24809 | 36912 ft | 504 kts | 181° |
| 2026-04-21 15:44 | 40.42947 | 137.27437 | 36963 ft | 502 kts | 181° |
| 2026-04-21 15:44 | 40.36227 | 137.30075 | 36934 ft | 502 kts | 181° |
| 2026-04-21 15:45 | 40.29511 | 137.32803 | 36948 ft | 508 kts | 180° |
| 2026-04-21 15:45 | 40.22890 | 137.35431 | 36941 ft | 505 kts | 181° |
| 2026-04-21 15:46 | 40.16230 | 137.37856 | 37008 ft | 509 kts | 180° |
| 2026-04-21 15:46 | 40.09535 | 137.40526 | 36993 ft | 507 kts | 181° |
| 2026-04-21 15:47 | 40.02816 | 137.43162 | 36986 ft | 505 kts | 180° |
| 2026-04-21 15:47 | 39.99436 | 137.44510 | 36979 ft | 517 kts | 181° |
| 2026-04-21 15:47 | 39.96012 | 137.45880 | 36976 ft | 510 kts | 180° |
| 2026-04-21 15:48 | 39.89577 | 137.48457 | 36994 ft | 510 kts | 180° |
| 2026-04-21 15:48 | 39.82904 | 137.51135 | 36951 ft | 507 kts | 181° |
| 2026-04-21 15:49 | 39.76207 | 137.53804 | 36875 ft | 509 kts | 181° |
| 2026-04-21 15:49 | 39.72868 | 137.55167 | 37033 ft | 507 kts | 181° |
| 2026-04-21 15:49 | 39.69468 | 137.56522 | 36952 ft | 511 kts | 180° |
| 2026-04-21 15:50 | 39.62763 | 137.59184 | 36961 ft | 509 kts | 181° |
| 2026-04-21 15:50 | 39.59366 | 137.60510 | 37065 ft | 507 kts | 181° |
| 2026-04-21 15:50 | 39.55970 | 137.61832 | 37022 ft | 512 kts | 180° |
| 2026-04-21 15:51 | 39.49240 | 137.64533 | 37016 ft | 507 kts | 180° |
| 2026-04-21 15:51 | 39.42883 | 137.67067 | 37077 ft | 509 kts | 180° |
| 2026-04-21 15:52 | 39.36454 | 137.69646 | 36990 ft | 510 kts | 181° |
| 2026-04-21 15:52 | 39.29270 | 137.72508 | 37009 ft | 513 kts | 181° |
| 2026-04-21 15:53 | 39.22550 | 137.75481 | 37083 ft | 533 kts | 169° |
| 2026-04-21 15:53 | 39.19274 | 137.78062 | 37074 ft | 565 kts | 154° |
| 2026-04-21 15:53 | 39.16368 | 137.81520 | 37123 ft | 578 kts | 146° |
| 2026-04-21 15:54 | 39.13487 | 137.85199 | 36974 ft | 576 kts | 146° |
| 2026-04-21 15:54 | 39.10620 | 137.88715 | 37062 ft | 569 kts | 149° |
| 2026-04-21 15:54 | 39.04673 | 137.95421 | 36994 ft | 564 kts | 151° |
| 2026-04-21 15:55 | 38.98672 | 138.01982 | 36975 ft | 566 kts | 151° |
| 2026-04-21 15:55 | 38.92662 | 138.08453 | 37031 ft | 568 kts | 152° |
| 2026-04-21 15:56 | 38.86761 | 138.14882 | 37039 ft | 565 kts | 150° |
| 2026-04-21 15:56 | 38.80958 | 138.21117 | 37029 ft | 563 kts | 151° |
| 2026-04-21 15:57 | 38.74968 | 138.27536 | 37031 ft | 565 kts | 151° |
| 2026-04-21 15:57 | 38.69074 | 138.33865 | 37032 ft | 564 kts | 150° |
| 2026-04-21 15:58 | 38.63083 | 138.40292 | 37033 ft | 563 kts | 151° |
| 2026-04-21 15:58 | 38.57074 | 138.46730 | 37024 ft | 560 kts | 151° |
| 2026-04-21 15:59 | 38.51085 | 138.53119 | 37023 ft | 561 kts | 151° |
| 2026-04-21 15:59 | 38.45079 | 138.59517 | 37029 ft | 560 kts | 151° |
| 2026-04-21 16:00 | 38.39097 | 138.65826 | 37016 ft | 563 kts | 152° |
| 2026-04-21 16:00 | 38.33739 | 138.71516 | 37039 ft | 557 kts | 152° |
| 2026-04-21 16:01 | 38.29065 | 138.76445 | 37050 ft | 558 kts | 152° |
| 2026-04-21 16:01 | 38.22757 | 138.83077 | 37067 ft | 558 kts | 152° |
| 2026-04-21 16:02 | 38.10931 | 138.95462 | 37058 ft | 557 kts | 151° |
| 2026-04-21 16:03 | 38.04970 | 139.01813 | 37056 ft | 557 kts | 150° |
| 2026-04-21 16:03 | 37.99357 | 139.07771 | 37061 ft | 556 kts | 150° |
| 2026-04-21 16:04 | 37.93599 | 139.14661 | 37126 ft | 564 kts | 133° |
| 2026-04-21 16:04 | 37.91370 | 139.18773 | 37084 ft | 577 kts | 128° |
| 2026-04-21 16:04 | 37.89220 | 139.22931 | 37038 ft | 572 kts | 129° |
| 2026-04-21 16:05 | 37.84847 | 139.30984 | 37059 ft | 571 kts | 131° |
| 2026-04-21 16:05 | 37.81535 | 139.36906 | 37056 ft | 569 kts | 131° |
| 2026-04-21 16:06 | 37.76759 | 139.45373 | 37058 ft | 570 kts | 131° |
| 2026-04-21 16:06 | 37.71182 | 139.55223 | 37055 ft | 570 kts | 131° |
| 2026-04-21 16:07 | 37.66695 | 139.63126 | 37058 ft | 568 kts | 131° |
| 2026-04-21 16:07 | 37.62103 | 139.71199 | 37059 ft | 567 kts | 131° |
| 2026-04-21 16:08 | 37.55220 | 139.83275 | 37058 ft | 568 kts | 131° |
| 2026-04-21 16:09 | 37.50561 | 139.91408 | 37050 ft | 569 kts | 131° |
| 2026-04-21 16:09 | 37.45939 | 139.99457 | 37066 ft | 568 kts | 131° |
| 2026-04-21 16:10 | 37.41363 | 140.07414 | 37074 ft | 567 kts | 131° |
| 2026-04-21 16:10 | 37.37275 | 140.14500 | 37085 ft | 568 kts | 131° |
| 2026-04-21 16:11 | 37.32481 | 140.22794 | 37088 ft | 567 kts | 131° |
| 2026-04-21 16:11 | 37.27749 | 140.30954 | 37079 ft | 565 kts | 131° |
| 2026-04-21 16:12 | 37.24382 | 140.36749 | 37088 ft | 566 kts | 131° |
| 2026-04-21 16:12 | 37.18800 | 140.46336 | 37081 ft | 564 kts | 131° |
| 2026-04-21 16:13 | 37.14545 | 140.53622 | 37059 ft | 563 kts | 131° |
| 2026-04-21 16:13 | 37.09639 | 140.62006 | 37053 ft | 562 kts | 131° |
| 2026-04-21 16:14 | 37.05590 | 140.68564 | 37103 ft | 549 kts | 142° |
| 2026-04-21 16:14 | 37.02709 | 140.71605 | 37136 ft | 537 kts | 157° |
| 2026-04-21 16:14 | 36.99306 | 140.74020 | 37089 ft | 521 kts | 165° |
| 2026-04-21 16:15 | 36.92833 | 140.77084 | 37135 ft | 489 kts | 185° |
| 2026-04-21 16:15 | 36.90013 | 140.77310 | 37117 ft | 463 kts | 198° |
| 2026-04-21 16:15 | 36.84446 | 140.75264 | 37123 ft | 414 kts | 223° |
| 2026-04-21 16:16 | 36.82089 | 140.73715 | 37044 ft | 415 kts | 220° |
| 2026-04-21 16:16 | 36.76564 | 140.70853 | 36027 ft | 446 kts | 213° |
| 2026-04-21 16:16 | 36.73845 | 140.69731 | 35403 ft | 446 kts | 211° |
| 2026-04-21 16:17 | 36.70943 | 140.68610 | 34863 ft | 442 kts | 211° |
| 2026-04-21 16:17 | 36.68087 | 140.67522 | 34307 ft | 439 kts | 211° |
| 2026-04-21 16:17 | 36.65216 | 140.66431 | 33760 ft | 435 kts | 211° |
| 2026-04-21 16:17 | 36.62383 | 140.65352 | 33219 ft | 432 kts | 211° |
| 2026-04-21 16:18 | 36.59524 | 140.64262 | 32680 ft | 428 kts | 211° |
| 2026-04-21 16:18 | 36.56827 | 140.63235 | 32170 ft | 425 kts | 211° |
| 2026-04-21 16:18 | 36.54059 | 140.62184 | 31506 ft | 418 kts | 211° |
| 2026-04-21 16:18 | 36.51335 | 140.61153 | 30760 ft | 411 kts | 211° |
| 2026-04-21 16:19 | 36.48689 | 140.60147 | 30028 ft | 405 kts | 211° |
| 2026-04-21 16:19 | 36.46054 | 140.59146 | 29296 ft | 398 kts | 211° |
| 2026-04-21 16:19 | 36.43530 | 140.58186 | 28597 ft | 392 kts | 211° |
| 2026-04-21 16:19 | 36.40953 | 140.57208 | 27872 ft | 386 kts | 211° |
| 2026-04-21 16:20 | 36.38413 | 140.56245 | 27147 ft | 381 kts | 210° |
| 2026-04-21 16:20 | 36.35883 | 140.55286 | 26417 ft | 375 kts | 210° |
| 2026-04-21 16:20 | 36.33458 | 140.54366 | 25702 ft | 371 kts | 210° |
| 2026-04-21 16:20 | 36.31064 | 140.53465 | 24983 ft | 367 kts | 208° |
| 2026-04-21 16:21 | 36.28618 | 140.52644 | 24288 ft | 364 kts | 207° |
| 2026-04-21 16:21 | 36.26212 | 140.51877 | 23576 ft | 360 kts | 206° |
| 2026-04-21 16:21 | 36.23795 | 140.51103 | 22858 ft | 355 kts | 207° |
| 2026-04-21 16:21 | 36.21448 | 140.50336 | 22152 ft | 351 kts | 207° |
| 2026-04-21 16:22 | 36.19103 | 140.49580 | 21451 ft | 349 kts | 204° |
| 2026-04-21 16:22 | 36.16687 | 140.49373 | 20909 ft | 363 kts | 187° |
| 2026-04-21 16:22 | 36.14187 | 140.50046 | 20360 ft | 378 kts | 171° |
| 2026-04-21 16:22 | 36.11829 | 140.51594 | 19793 ft | 396 kts | 153° |
| 2026-04-21 16:23 | 36.09798 | 140.53940 | 19228 ft | 410 kts | 136° |
| 2026-04-21 16:23 | 36.08271 | 140.56891 | 18663 ft | 415 kts | 122° |
| 2026-04-21 16:23 | 36.07072 | 140.60112 | 18040 ft | 413 kts | 117° |
| 2026-04-21 16:23 | 36.05936 | 140.63344 | 17431 ft | 406 kts | 121° |
| 2026-04-21 16:24 | 36.04594 | 140.66322 | 16940 ft | 393 kts | 129° |
| 2026-04-21 16:24 | 36.02990 | 140.68948 | 16484 ft | 383 kts | 137° |
| 2026-04-21 16:24 | 36.01107 | 140.71248 | 16044 ft | 373 kts | 148° |
| 2026-04-21 16:24 | 35.99009 | 140.72972 | 15648 ft | 363 kts | 159° |
| 2026-04-21 16:25 | 35.96762 | 140.74286 | 15234 ft | 351 kts | 166° |
| 2026-04-21 16:25 | 35.94593 | 140.75182 | 14832 ft | 344 kts | 172° |
| 2026-04-21 16:25 | 35.92274 | 140.75954 | 14361 ft | 343 kts | 174° |
| 2026-04-21 16:25 | 35.89975 | 140.76611 | 13889 ft | 339 kts | 174° |
| 2026-04-21 16:26 | 35.87656 | 140.77241 | 13317 ft | 343 kts | 175° |
| 2026-04-21 16:26 | 35.85339 | 140.77687 | 12810 ft | 340 kts | 180° |
| 2026-04-21 16:26 | 35.83004 | 140.77531 | 12403 ft | 326 kts | 198° |
| 2026-04-21 16:26 | 35.80983 | 140.76559 | 12031 ft | 312 kts | 217° |
| 2026-04-21 16:27 | 35.79429 | 140.74818 | 11763 ft | 296 kts | 238° |
| 2026-04-21 16:27 | 35.78540 | 140.72612 | 11249 ft | 292 kts | 257° |
| 2026-04-21 16:27 | 35.78402 | 140.70143 | 10679 ft | 293 kts | 278° |
| 2026-04-21 16:27 | 35.79051 | 140.67776 | 10139 ft | 297 kts | 299° |
| 2026-04-21 16:28 | 35.80282 | 140.66014 | 9858 ft | 294 kts | 319° |
| 2026-04-21 16:28 | 35.81964 | 140.64439 | 9569 ft | 289 kts | 321° |
| 2026-04-21 16:28 | 35.83538 | 140.62953 | 9164 ft | 285 kts | 326° |
| 2026-04-21 16:28 | 35.85228 | 140.61844 | 8757 ft | 272 kts | 331° |
| 2026-04-21 16:29 | 35.86863 | 140.60799 | 8263 ft | 264 kts | 330° |
| 2026-04-21 16:29 | 35.88434 | 140.59703 | 7772 ft | 257 kts | 327° |
| 2026-04-21 16:29 | 35.89923 | 140.58525 | 7308 ft | 253 kts | 324° |
| 2026-04-21 16:29 | 35.91318 | 140.57256 | 6862 ft | 251 kts | 321° |
| 2026-04-21 16:30 | 35.92613 | 140.55891 | 6433 ft | 247 kts | 317° |
| 2026-04-21 16:30 | 35.93829 | 140.54399 | 6031 ft | 243 kts | 313° |
| 2026-04-21 16:30 | 35.94917 | 140.52840 | 5993 ft | 250 kts | 309° |
| 2026-04-21 16:30 | 35.95940 | 140.51088 | 6027 ft | 245 kts | 301° |
| 2026-04-21 16:31 | 35.96554 | 140.49178 | 6026 ft | 243 kts | 287° |
| 2026-04-21 16:31 | 35.96912 | 140.47104 | 5973 ft | 248 kts | 281° |
| 2026-04-21 16:31 | 35.97167 | 140.44995 | 5608 ft | 251 kts | 280° |
| 2026-04-21 16:31 | 35.97418 | 140.42874 | 5233 ft | 253 kts | 280° |
| 2026-04-21 16:32 | 35.97679 | 140.40733 | 4871 ft | 254 kts | 280° |
| 2026-04-21 16:32 | 35.97950 | 140.38564 | 4515 ft | 255 kts | 280° |
| 2026-04-21 16:32 | 35.98230 | 140.36397 | 4167 ft | 255 kts | 280° |
| 2026-04-21 16:32 | 35.98518 | 140.34222 | 3807 ft | 257 kts | 279° |
| 2026-04-21 16:33 | 35.98774 | 140.32193 | 3420 ft | 259 kts | 275° |
| 2026-04-21 16:33 | 35.98682 | 140.30017 | 3104 ft | 257 kts | 256° |
| 2026-04-21 16:33 | 35.98166 | 140.27939 | 2938 ft | 249 kts | 250° |
| 2026-04-21 16:33 | 35.97452 | 140.26155 | 3045 ft | 231 kts | 231° |
| 2026-04-21 16:34 | 35.96218 | 140.24896 | 3045 ft | 234 kts | 206° |
| 2026-04-21 16:34 | 35.94727 | 140.24416 | 3047 ft | 220 kts | 181° |
| 2026-04-21 16:34 | 35.93298 | 140.24791 | 3144 ft | 219 kts | 154° |
| 2026-04-21 16:34 | 35.92113 | 140.25835 | 3087 ft | 204 kts | 141° |
| 2026-04-21 16:35 | 35.91004 | 140.26886 | 2779 ft | 199 kts | 146° |
| 2026-04-21 16:35 | 35.89893 | 140.27754 | 2819 ft | 175 kts | 148° |
| 2026-04-21 16:35 | 35.88841 | 140.28543 | 2797 ft | 173 kts | 149° |
| 2026-04-21 16:35 | 35.87814 | 140.29297 | 2586 ft | 179 kts | 149° |
| 2026-04-21 16:36 | 35.86848 | 140.30000 | 2323 ft | 163 kts | 149° |
| 2026-04-21 16:36 | 35.85856 | 140.30724 | 2069 ft | 165 kts | 149° |
| 2026-04-21 16:36 | 35.84884 | 140.31429 | 1863 ft | 157 kts | 149° |
| 2026-04-21 16:36 | 35.83911 | 140.32136 | 1653 ft | 160 kts | 149° |
| 2026-04-21 16:37 | 35.82944 | 140.32838 | 1428 ft | 165 kts | 149° |
| 2026-04-21 16:37 | 35.82004 | 140.33521 | 1206 ft | 148 kts | 149° |
| 2026-04-21 16:37 | 35.81142 | 140.34157 | 1003 ft | 147 kts | 149° |
| 2026-04-21 16:37 | 35.80234 | 140.34828 | 837 ft | 152 kts | 149° |
| 2026-04-21 16:38 | 35.79345 | 140.35467 | 612 ft | 146 kts | 149° |
| 2026-04-21 16:38 | 35.78475 | 140.36092 | 405 ft | 143 kts | 149° |
| 2026-04-21 16:38 | 35.77606 | 140.36711 | 224 ft | 143 kts | 149° |
| 2026-04-21 16:38 | 35.76781 | 140.37305 | 136 ft | 125 kts | 149° |
| 2026-04-21 16:39 | 35.76163 | 140.37753 | 139 ft | 79 kts | 150° |
| 2026-04-21 16:39 | 35.75830 | 140.37994 | 141 ft | 43 kts | 149° |
| 2026-04-21 16:39 | 35.75610 | 140.38167 | 143 ft | 32 kts | 135° |
| 2026-04-21 16:39 | 35.75489 | 140.38371 | 143 ft | 29 kts | 120° |
| 2026-04-21 16:40 | 35.75423 | 140.38519 | 141 ft | 9 kts | 120° |
| 2026-04-21 16:40 | 35.75371 | 140.38583 | 141 ft | 11 kts | 150° |
| 2026-04-21 16:40 | 35.75290 | 140.38640 | 141 ft | 15 kts | 150° |
| 2026-04-21 16:40 | 35.75196 | 140.38710 | 141 ft | 9 kts | 148° |
| 2026-04-21 16:41 | 35.75158 | 140.38780 | 141 ft | 12 kts | 85° |
| 2026-04-21 16:41 | 35.75219 | 140.38847 | 141 ft | 15 kts | 24° |
| 2026-04-21 16:41 | 35.75330 | 140.38910 | 141 ft | 18 kts | 24° |
| 2026-04-21 16:41 | 35.75458 | 140.38982 | 141 ft | 21 kts | 24° |
| 2026-04-21 16:42 | 35.75592 | 140.39055 | 141 ft | 17 kts | 24° |
| 2026-04-21 16:42 | 35.75653 | 140.39088 | 141 ft | 18 kts | 24° |
| 2026-04-21 16:42 | 35.75713 | 140.39142 | 141 ft | 8 kts | 55° |
| 2026-04-21 16:42 | 35.75736 | 140.39186 | 141 ft | 2 kts | 60° |
| 2026-04-21 16:43 | 35.75735 | 140.39238 | 141 ft | 8 kts | 128° |
| 2026-04-21 16:43 | 35.75680 | 140.39284 | 141 ft | 11 kts | 148° |
| 2026-04-21 16:43 | 35.75633 | 140.39327 | 141 ft | 7 kts | 112° |
| 2026-04-21 16:43 | 35.75654 | 140.39400 | 141 ft | 10 kts | 57° |
| 2026-04-21 16:44 | 35.75668 | 140.39429 | 141 ft | 1 kts | 58° |
| 2026-04-21 16:44 | 35.75670 | 140.39433 | 141 ft | 0 kts | 58° |
| 2026-04-21 16:44 | 35.75671 | 140.39435 | 141 ft | 0 kts | 58° |